createdAt,value
2019-03-31T00:01:07.557Z,7.73
2019-03-31T00:03:27.886Z,10.53
2019-03-31T00:05:57.703Z,9.33
2019-03-31T00:08:28.945Z,7.27
2019-03-31T00:11:00.680Z,9.50
2019-03-31T00:13:30.127Z,10.03
2019-03-31T00:16:00.016Z,14.67
2019-03-31T00:18:30.069Z,11.10
2019-03-31T00:20:59.810Z,12.67
2019-03-31T00:23:29.897Z,10.10
2019-03-31T00:25:59.573Z,11.53
2019-03-31T00:28:29.571Z,10.70
2019-03-31T00:30:59.300Z,5.80
2019-03-31T00:33:30.011Z,9.50
2019-03-31T00:35:59.728Z,7.97
2019-03-31T00:38:29.402Z,9.23
2019-03-31T00:40:59.084Z,11.90
2019-03-31T00:43:28.792Z,8.23
2019-03-31T00:45:58.698Z,8.07
2019-03-31T00:48:28.340Z,8.53
2019-03-31T00:50:58.399Z,11.20
2019-03-31T00:53:28.065Z,9.57
2019-03-31T00:55:58.258Z,10.23
2019-03-31T00:58:27.948Z,9.87
2019-03-31T01:01:17.953Z,7.70
2019-03-31T01:03:48.392Z,8.37
2019-03-31T01:06:19.214Z,8.00
2019-03-31T01:08:48.877Z,8.83
2019-03-31T01:11:23.607Z,8.37
2019-03-31T01:13:53.827Z,7.93
2019-03-31T01:16:23.630Z,9.70
2019-03-31T01:18:53.462Z,9.10
2019-03-31T01:21:23.169Z,8.03
2019-03-31T01:23:52.833Z,6.97
2019-03-31T01:26:23.096Z,7.63
2019-03-31T01:28:53.016Z,7.07
2019-03-31T01:31:22.700Z,7.40
2019-03-31T01:33:52.356Z,7.60
2019-03-31T01:36:22.017Z,10.63
2019-03-31T01:38:51.717Z,13.33
2019-03-31T01:41:21.642Z,8.43
2019-03-31T01:43:51.329Z,7.83
2019-03-31T01:46:24.058Z,15.13
2019-03-31T01:48:53.785Z,10.07
2019-03-31T01:51:23.464Z,12.00
2019-03-31T01:53:53.236Z,13.87
2019-03-31T01:56:23.746Z,9.17
2019-03-31T01:58:53.509Z,11.83
2019-03-31T02:01:23.313Z,7.93
2019-03-31T02:03:53.283Z,11.90
2019-03-31T02:06:22.975Z,8.17
2019-03-31T02:08:52.697Z,8.53
2019-03-31T02:11:22.345Z,9.83
2019-03-31T02:13:52.287Z,10.10
2019-03-31T02:16:21.997Z,9.77
2019-03-31T02:18:52.237Z,11.87
2019-03-31T02:21:22.262Z,12.07
2019-03-31T02:23:51.904Z,8.27
2019-03-31T02:26:21.629Z,7.43
2019-03-31T02:28:51.289Z,8.77
2019-03-31T02:31:21.159Z,6.97
2019-03-31T02:33:50.829Z,8.40
2019-03-31T02:36:20.549Z,8.63
2019-03-31T02:38:50.250Z,9.10
2019-03-31T02:41:20.076Z,9.40
2019-03-31T02:43:49.785Z,12.53
2019-03-31T02:46:19.430Z,8.23
2019-03-31T02:48:49.147Z,8.80
2019-03-31T02:51:18.916Z,7.93
2019-03-31T02:53:48.746Z,8.30
2019-03-31T02:56:20.024Z,9.00
2019-03-31T02:58:50.652Z,7.10
2019-03-31T03:01:22.685Z,8.13
2019-03-31T03:03:53.520Z,8.63
2019-03-31T03:06:24.635Z,8.47
2019-03-31T03:08:56.124Z,10.30
2019-03-31T03:11:26.962Z,8.27
2019-03-31T03:13:59.251Z,11.03
2019-03-31T03:16:28.983Z,11.07
2019-03-31T03:18:58.889Z,8.60
2019-03-31T03:21:28.567Z,9.03
2019-03-31T03:23:58.237Z,10.37
2019-03-31T03:26:27.988Z,9.17
2019-03-31T03:28:57.663Z,8.87
2019-03-31T03:31:27.625Z,8.00
2019-03-31T03:33:57.297Z,10.30
2019-03-31T03:36:27.360Z,9.30
2019-03-31T03:38:57.069Z,7.93
2019-03-31T03:41:26.811Z,9.17
2019-03-31T03:44:01.925Z,8.00
2019-03-31T03:46:28.209Z,8.43
2019-03-31T03:48:57.939Z,7.80
2019-03-31T03:51:27.596Z,11.50
2019-03-31T03:53:57.244Z,9.87
2019-03-31T03:56:29.066Z,7.23
2019-03-31T03:58:58.332Z,7.97
2019-03-31T04:01:29.694Z,8.83
2019-03-31T04:03:59.567Z,9.73
2019-03-31T04:06:29.250Z,8.50
2019-03-31T04:08:59.110Z,9.80
2019-03-31T04:11:30.678Z,9.80
2019-03-31T04:14:00.501Z,8.80
2019-03-31T04:16:30.175Z,9.17
2019-03-31T04:18:59.817Z,7.27
2019-03-31T04:21:29.492Z,8.23
2019-03-31T04:23:59.162Z,8.50
2019-03-31T04:26:28.824Z,8.53
2019-03-31T04:28:58.470Z,7.93
2019-03-31T04:31:28.164Z,9.00
2019-03-31T04:33:57.820Z,11.27
2019-03-31T04:36:27.497Z,8.97
2019-03-31T04:39:00.188Z,8.37
2019-03-31T04:41:28.819Z,7.97
2019-03-31T04:43:58.481Z,12.27
2019-03-31T04:46:28.149Z,7.33
2019-03-31T04:48:57.859Z,10.43
2019-03-31T04:51:27.530Z,9.30
2019-03-31T04:53:57.246Z,9.70
2019-03-31T04:56:26.894Z,11.03
2019-03-31T04:58:56.594Z,7.93
2019-03-31T05:01:26.632Z,7.00
2019-03-31T05:04:04.440Z,9.87
2019-03-31T05:06:27.651Z,8.03
2019-03-31T05:08:57.317Z,10.60
2019-03-31T05:11:27.017Z,10.20
2019-03-31T05:13:56.727Z,8.90
2019-03-31T05:16:26.613Z,10.57
2019-03-31T05:18:56.271Z,7.67
2019-03-31T05:21:26.069Z,8.13
2019-03-31T05:23:56.246Z,8.57
2019-03-31T05:26:25.936Z,8.97
2019-03-31T05:28:55.688Z,8.83
2019-03-31T05:31:25.381Z,8.23
2019-03-31T05:33:55.046Z,9.77
2019-03-31T05:36:24.724Z,10.53
2019-03-31T05:38:54.540Z,12.07
2019-03-31T05:41:24.239Z,9.40
2019-03-31T05:44:05.088Z,9.43
2019-03-31T05:46:26.442Z,10.17
2019-03-31T05:48:56.086Z,8.47
2019-03-31T05:51:25.784Z,10.70
2019-03-31T05:53:55.490Z,10.03
2019-03-31T05:56:25.265Z,7.83
2019-03-31T05:58:54.937Z,7.83
2019-03-31T06:01:24.840Z,10.03
2019-03-31T06:03:54.501Z,9.03
2019-03-31T06:06:24.240Z,11.07
2019-03-31T06:08:54.039Z,12.03
2019-03-31T06:11:23.820Z,9.03
2019-03-31T06:13:53.472Z,9.33
2019-03-31T06:16:23.199Z,12.10
2019-03-31T06:18:52.957Z,11.13
2019-03-31T06:21:22.644Z,11.57
2019-03-31T06:23:52.311Z,10.17
2019-03-31T06:26:22.137Z,9.40
2019-03-31T06:28:51.970Z,10.47
2019-03-31T06:31:21.661Z,13.00
2019-03-31T06:33:51.355Z,15.90
2019-03-31T06:36:21.119Z,13.03
2019-03-31T06:38:50.827Z,17.47
2019-03-31T06:41:20.567Z,14.93
2019-03-31T06:43:50.496Z,66.90
2019-03-31T06:46:20.346Z,39.97
2019-03-31T06:48:50.061Z,27.03
2019-03-31T06:51:19.766Z,31.20
2019-03-31T06:53:49.449Z,26.10
2019-03-31T06:56:19.170Z,23.53
2019-03-31T06:58:48.863Z,22.83
2019-03-31T07:01:18.570Z,19.00
2019-03-31T07:03:48.298Z,21.23
2019-03-31T07:06:18.146Z,17.27
2019-03-31T07:08:47.881Z,18.13
2019-03-31T07:11:17.589Z,15.50
2019-03-31T07:13:47.333Z,14.67
2019-03-31T07:16:17.012Z,17.83
2019-03-31T07:18:47.235Z,13.77
2019-03-31T07:21:17.030Z,10.57
2019-03-31T07:23:46.723Z,10.83
2019-03-31T07:26:19.087Z,16.23
2019-03-31T07:28:48.811Z,10.57
2019-03-31T07:31:18.998Z,14.70
2019-03-31T07:33:48.867Z,14.33
2019-03-31T07:36:18.612Z,13.73
2019-03-31T07:38:48.531Z,13.67
2019-03-31T07:41:18.491Z,14.20
2019-03-31T07:43:48.337Z,12.30
2019-03-31T07:46:18.249Z,14.20
2019-03-31T07:48:48.300Z,16.63
2019-03-31T07:51:17.996Z,24.63
2019-03-31T07:53:47.999Z,21.10
2019-03-31T07:56:17.741Z,15.87
2019-03-31T07:58:47.724Z,15.27
2019-03-31T08:01:17.687Z,13.17
2019-03-31T08:03:47.342Z,15.83
2019-03-31T08:06:17.166Z,13.83
2019-03-31T08:08:46.981Z,15.33
2019-03-31T08:11:17.224Z,12.37
2019-03-31T08:13:47.266Z,15.77
2019-03-31T08:16:17.051Z,17.37
2019-03-31T08:18:46.779Z,13.73
2019-03-31T08:21:16.739Z,13.23
2019-03-31T08:23:46.864Z,15.30
2019-03-31T08:26:16.586Z,14.13
2019-03-31T08:28:46.425Z,17.47
2019-03-31T08:31:16.314Z,16.93
2019-03-31T08:33:46.134Z,14.53
2019-03-31T08:36:15.913Z,15.30
2019-03-31T08:38:45.635Z,15.93
2019-03-31T08:41:15.544Z,14.97
2019-03-31T08:43:45.269Z,21.07
2019-03-31T08:46:15.279Z,18.03
2019-03-31T08:48:45.083Z,16.37
2019-03-31T08:51:15.182Z,20.67
2019-03-31T08:53:45.004Z,15.80
2019-03-31T08:56:14.848Z,20.77
2019-03-31T08:58:44.616Z,17.80
2019-03-31T09:01:16.563Z,21.23
2019-03-31T09:03:46.328Z,20.00
2019-03-31T09:06:16.126Z,17.30
2019-03-31T09:08:45.950Z,17.98
2019-03-31T09:11:15.810Z,20.85
2019-03-31T09:13:45.757Z,19.42
2019-03-31T09:16:15.640Z,28.17
2019-03-31T09:18:45.498Z,21.33
2019-03-31T09:21:15.267Z,20.15
2019-03-31T09:23:45.027Z,19.65
2019-03-31T09:26:14.859Z,18.32
2019-03-31T09:28:44.576Z,17.23
2019-03-31T09:31:14.385Z,17.52
2019-03-31T09:33:44.119Z,19.07
2019-03-31T09:36:16.371Z,17.90
2019-03-31T09:38:45.400Z,19.02
2019-03-31T09:41:15.205Z,19.17
2019-03-31T09:43:45.041Z,15.55
2019-03-31T09:46:14.794Z,20.05
2019-03-31T09:48:44.793Z,15.30
2019-03-31T09:51:14.498Z,15.53
2019-03-31T09:53:44.354Z,16.40
2019-03-31T09:56:15.372Z,17.45
2019-03-31T09:58:45.432Z,16.15
2019-03-31T10:01:15.186Z,15.93
2019-03-31T10:03:45.198Z,17.07
2019-03-31T10:06:14.892Z,15.72
2019-03-31T10:08:44.954Z,14.90
2019-03-31T10:11:14.768Z,21.20
2019-03-31T10:13:45.294Z,14.50
2019-03-31T10:16:15.032Z,15.70
2019-03-31T10:18:44.832Z,13.20
2019-03-31T10:21:14.656Z,19.32
2019-03-31T10:23:44.524Z,15.10
2019-03-31T10:26:16.169Z,12.80
2019-03-31T10:28:45.903Z,16.62
2019-03-31T10:31:15.821Z,16.55
2019-03-31T10:33:45.797Z,16.93
2019-03-31T10:36:16.056Z,15.15
2019-03-31T10:38:45.930Z,12.05
2019-03-31T10:41:15.778Z,14.55
2019-03-31T10:43:45.610Z,11.90
2019-03-31T10:46:15.430Z,10.10
2019-03-31T10:48:45.583Z,7.35
2019-03-31T10:51:15.361Z,7.28
2019-03-31T10:53:45.140Z,7.58
2019-03-31T10:56:14.915Z,5.72
2019-03-31T10:58:44.661Z,5.97
2019-03-31T11:01:14.375Z,4.62
2019-03-31T11:03:44.134Z,6.40
2019-03-31T11:06:13.890Z,7.55
2019-03-31T11:08:43.692Z,7.87
2019-03-31T11:11:13.560Z,6.12
2019-03-31T11:13:43.325Z,6.67
2019-03-31T11:16:13.197Z,7.37
2019-03-31T11:18:43.070Z,6.85
2019-03-31T11:21:23.050Z,6.08
2019-03-31T11:23:52.771Z,6.47
2019-03-31T11:26:22.565Z,8.38
2019-03-31T11:28:52.445Z,7.78
2019-03-31T11:31:22.371Z,7.85
2019-03-31T11:33:52.291Z,5.78
2019-03-31T11:36:22.069Z,6.55
2019-03-31T11:38:51.935Z,8.80
2019-03-31T11:41:21.822Z,5.35
2019-03-31T11:43:51.705Z,4.12
2019-03-31T11:46:21.558Z,3.47
2019-03-31T11:48:51.361Z,3.27
2019-03-31T11:51:21.125Z,4.33
2019-03-31T11:53:51.324Z,5.65
2019-03-31T11:56:21.096Z,5.33
2019-03-31T11:58:50.883Z,3.98
2019-03-31T12:01:21.027Z,4.92
2019-03-31T12:03:50.927Z,5.00
2019-03-31T12:06:21.068Z,6.33
2019-03-31T12:08:50.826Z,4.92
2019-03-31T12:11:20.630Z,4.67
2019-03-31T12:13:50.511Z,7.58
2019-03-31T12:16:20.304Z,4.42
2019-03-31T12:18:50.144Z,4.10
2019-03-31T12:21:20.164Z,6.08
2019-03-31T12:23:50.091Z,4.58
2019-03-31T12:26:19.834Z,5.62
2019-03-31T12:28:49.659Z,5.00
2019-03-31T12:31:19.418Z,4.87
2019-03-31T12:33:49.207Z,4.40
2019-03-31T12:36:18.966Z,6.50
2019-03-31T12:38:48.720Z,4.33
2019-03-31T12:41:18.458Z,9.95
2019-03-31T12:43:48.217Z,7.75
2019-03-31T12:46:18.486Z,4.47
2019-03-31T12:48:48.292Z,5.10
2019-03-31T12:51:18.111Z,4.17
2019-03-31T12:53:50.937Z,5.20
2019-03-31T12:56:19.287Z,5.53
2019-03-31T12:58:49.294Z,4.05
2019-03-31T13:01:19.012Z,3.60
2019-03-31T13:03:48.930Z,6.72
2019-03-31T13:06:18.729Z,5.55
2019-03-31T13:08:50.212Z,4.20
2019-03-31T13:11:19.962Z,5.05
2019-03-31T13:13:49.797Z,3.75
2019-03-31T13:16:19.576Z,5.97
2019-03-31T13:18:49.416Z,3.40
2019-03-31T13:21:20.299Z,4.17
2019-03-31T13:23:50.568Z,7.22
2019-03-31T13:26:20.851Z,3.60
2019-03-31T13:28:50.713Z,7.00
2019-03-31T13:31:20.415Z,4.87
2019-03-31T13:33:50.116Z,4.42
2019-03-31T13:36:20.033Z,3.47
2019-03-31T13:38:53.019Z,3.17
2019-03-31T13:41:22.855Z,3.42
2019-03-31T13:43:52.639Z,5.87
2019-03-31T13:46:22.880Z,3.10
2019-03-31T13:48:52.803Z,4.45
2019-03-31T13:51:24.566Z,5.58
2019-03-31T13:53:54.167Z,4.53
2019-03-31T13:56:25.916Z,3.70
2019-03-31T13:58:56.312Z,7.95
2019-03-31T14:01:26.516Z,4.00
2019-03-31T14:03:57.593Z,3.25
2019-03-31T14:06:27.545Z,5.97
2019-03-31T14:08:57.407Z,4.25
2019-03-31T14:11:27.794Z,6.37
2019-03-31T14:13:57.762Z,5.78
2019-03-31T14:16:29.238Z,9.23
2019-03-31T14:18:59.201Z,10.70
2019-03-31T14:21:29.269Z,8.18
2019-03-31T14:23:59.101Z,6.40
2019-03-31T14:26:29.049Z,3.00
2019-03-31T14:28:58.895Z,4.75
2019-03-31T14:31:28.715Z,3.75
2019-03-31T14:33:58.946Z,2.92
2019-03-31T14:36:28.717Z,3.55
2019-03-31T14:38:58.624Z,4.10
2019-03-31T14:41:28.513Z,5.87
2019-03-31T14:43:58.405Z,3.67
2019-03-31T14:46:28.461Z,3.40
2019-03-31T14:48:58.425Z,4.25
2019-03-31T14:51:28.716Z,4.40
2019-03-31T14:53:58.585Z,3.85
2019-03-31T14:56:28.354Z,3.58
2019-03-31T14:58:58.156Z,3.25
2019-03-31T15:01:28.258Z,3.65
2019-03-31T15:03:58.069Z,5.00
2019-03-31T15:06:28.224Z,4.37
2019-03-31T15:08:58.317Z,3.10
2019-03-31T15:11:28.670Z,3.85
2019-03-31T15:13:58.910Z,4.03
2019-03-31T15:16:28.932Z,5.35
2019-03-31T15:18:58.812Z,3.67
2019-03-31T15:21:28.901Z,4.12
2019-03-31T15:23:58.791Z,8.70
2019-03-31T15:26:28.619Z,4.75
2019-03-31T15:28:58.459Z,4.85
2019-03-31T15:31:28.530Z,5.53
2019-03-31T15:33:58.393Z,3.55
2019-03-31T15:36:28.263Z,3.10
2019-03-31T15:39:08.847Z,4.45
2019-03-31T15:41:29.795Z,5.00
2019-03-31T15:43:59.642Z,6.58
2019-03-31T15:46:29.809Z,3.70
2019-03-31T15:48:59.645Z,5.60
2019-03-31T15:51:29.519Z,3.00
2019-03-31T15:53:59.556Z,6.35
2019-03-31T15:56:30.807Z,2.70
2019-03-31T15:59:00.612Z,5.25
2019-03-31T16:01:30.413Z,4.43
2019-03-31T16:04:00.187Z,3.53
2019-03-31T16:06:30.101Z,4.13
2019-03-31T16:08:59.312Z,4.73
2019-03-31T16:11:28.711Z,4.37
2019-03-31T16:13:57.940Z,4.13
2019-03-31T16:16:30.506Z,4.80
2019-03-31T16:18:58.294Z,5.47
2019-03-31T16:21:27.651Z,6.20
2019-03-31T16:23:56.946Z,5.60
2019-03-31T16:26:26.450Z,4.47
2019-03-31T16:28:56.001Z,8.93
2019-03-31T16:31:25.207Z,4.63
2019-03-31T16:33:54.626Z,4.40
2019-03-31T16:36:23.887Z,4.83
2019-03-31T16:38:53.073Z,3.93
2019-03-31T16:41:22.394Z,6.13
2019-03-31T16:43:51.660Z,5.73
2019-03-31T16:46:21.109Z,5.63
2019-03-31T16:48:50.438Z,5.63
2019-03-31T16:51:19.941Z,4.33
2019-03-31T16:53:49.339Z,3.70
2019-03-31T16:56:18.576Z,4.97
2019-03-31T16:58:47.827Z,5.27
2019-03-31T17:01:17.231Z,4.42
2019-03-31T17:03:46.654Z,4.70
2019-03-31T17:06:15.972Z,5.33
2019-03-31T17:08:45.472Z,6.73
2019-03-31T17:11:15.033Z,4.47
2019-03-31T17:13:44.298Z,6.60
2019-03-31T17:16:15.465Z,5.90
2019-03-31T17:18:45.063Z,5.43
2019-03-31T17:21:14.435Z,5.07
2019-03-31T17:23:43.881Z,5.57
2019-03-31T17:26:13.334Z,6.47
2019-03-31T17:28:42.696Z,4.97
2019-03-31T17:31:12.175Z,6.03
2019-03-31T17:33:41.684Z,3.63
2019-03-31T17:36:11.091Z,6.33
2019-03-31T17:38:40.479Z,4.33
2019-03-31T17:41:10.039Z,6.33
2019-03-31T17:43:39.369Z,5.70
2019-03-31T17:46:09.131Z,5.57
2019-03-31T17:48:38.574Z,6.63
2019-03-31T17:51:08.112Z,5.33
2019-03-31T17:53:37.820Z,6.37
2019-03-31T17:56:07.074Z,5.27
2019-03-31T17:58:36.420Z,9.40
2019-03-31T18:01:06.375Z,6.00
2019-03-31T18:03:35.805Z,8.87
2019-03-31T18:06:05.152Z,11.10
2019-03-31T18:08:34.489Z,6.83
2019-03-31T18:11:03.885Z,7.03
2019-03-31T18:13:33.214Z,6.90
2019-03-31T18:16:02.593Z,7.17
2019-03-31T18:18:31.946Z,5.97
2019-03-31T18:21:01.428Z,16.53
2019-03-31T18:23:31.064Z,7.17
2019-03-31T18:26:00.594Z,9.20
2019-03-31T18:28:29.835Z,5.87
2019-03-31T18:30:59.576Z,6.50
2019-03-31T18:33:28.862Z,5.53
2019-03-31T18:35:58.122Z,7.53
2019-03-31T18:38:27.460Z,5.80
2019-03-31T18:40:57.392Z,5.77
2019-03-31T18:43:26.732Z,7.80
2019-03-31T18:45:56.048Z,7.00
2019-03-31T18:48:25.324Z,5.53
2019-03-31T18:50:54.621Z,7.20
2019-03-31T18:53:52.244Z,7.97
2019-03-31T18:56:46.795Z,6.40
2019-03-31T18:59:54.097Z,6.60
2019-03-31T19:02:33.709Z,5.87
2019-03-31T19:05:33.875Z,7.90
2019-03-31T19:08:34.162Z,5.97
2019-03-31T19:11:22.358Z,6.17
2019-03-31T19:16:48.022Z,8.30
2019-03-31T19:19:25.083Z,11.70
2019-03-31T19:22:09.938Z,10.77
2019-03-31T19:25:07.206Z,8.83
2019-03-31T19:27:50.088Z,9.13
2019-03-31T19:30:27.152Z,8.97
2019-03-31T19:33:05.855Z,9.83
2019-03-31T19:35:41.988Z,12.80
2019-03-31T19:38:19.812Z,11.03
2019-03-31T19:41:04.789Z,13.90
2019-03-31T19:43:39.984Z,11.93
2019-03-31T19:46:26.842Z,12.70
2019-03-31T19:49:11.421Z,14.03
2019-03-31T19:52:11.901Z,15.67
2019-03-31T19:54:58.862Z,13.03
2019-03-31T19:57:45.699Z,15.37
2019-03-31T20:00:30.526Z,16.53
2019-03-31T20:03:17.577Z,23.47
2019-03-31T20:06:05.755Z,18.57
2019-03-31T20:09:09.070Z,20.23
2019-03-31T20:11:51.596Z,24.10
2019-03-31T20:14:52.097Z,23.40
2019-03-31T20:17:39.143Z,26.57
2019-03-31T20:20:21.455Z,23.47
2019-03-31T20:23:15.762Z,29.80
2019-03-31T20:26:07.064Z,28.67
2019-03-31T20:28:54.103Z,29.50
2019-03-31T20:31:54.501Z,31.90
2019-03-31T20:34:42.696Z,32.30
2019-03-31T20:37:35.340Z,28.30
2019-03-31T20:40:23.961Z,31.97
2019-03-31T20:43:11.074Z,34.13
2019-03-31T20:45:40.529Z,37.17
2019-03-31T20:48:10.003Z,33.90
2019-03-31T20:50:39.546Z,34.83
2019-03-31T20:53:09.001Z,35.97
2019-03-31T20:55:38.270Z,34.17
2019-03-31T20:58:07.419Z,37.57
2019-03-31T21:00:36.801Z,37.70
2019-03-31T21:03:06.110Z,34.97
2019-03-31T21:05:35.362Z,33.93
2019-03-31T21:08:04.580Z,37.03
2019-03-31T21:10:34.191Z,35.83
2019-03-31T21:13:03.517Z,32.47
2019-03-31T21:15:32.981Z,34.80
2019-03-31T21:18:02.141Z,35.73
2019-03-31T21:20:31.318Z,34.37
2019-03-31T21:23:00.509Z,35.43
2019-03-31T21:25:29.695Z,33.97
2019-03-31T21:27:59.010Z,37.83
2019-03-31T21:30:28.143Z,32.83
2019-03-31T21:32:57.334Z,36.50
2019-03-31T21:35:26.509Z,34.23
2019-03-31T21:37:55.730Z,37.43
2019-03-31T21:40:24.853Z,37.70
2019-03-31T21:42:54.030Z,36.07
2019-03-31T21:45:23.210Z,33.93
2019-03-31T21:47:52.438Z,37.80
2019-03-31T21:50:21.597Z,36.40
2019-03-31T21:52:50.867Z,33.90
2019-03-31T21:55:20.082Z,35.40
2019-03-31T21:57:49.368Z,37.63
2019-03-31T22:00:20.628Z,34.30
2019-03-31T22:02:49.818Z,37.83
2019-03-31T22:05:19.052Z,36.67
2019-03-31T22:07:48.319Z,36.07
2019-03-31T22:10:17.525Z,40.60
2019-03-31T22:12:47.746Z,34.97
2019-03-31T22:15:17.017Z,37.33
2019-03-31T22:17:46.278Z,36.80
2019-03-31T22:20:15.442Z,38.87
2019-03-31T22:22:44.639Z,34.67
2019-03-31T22:25:13.784Z,40.90
2019-03-31T22:27:42.984Z,39.47
2019-03-31T22:30:12.529Z,38.60
2019-03-31T22:32:41.733Z,36.67
2019-03-31T22:35:10.926Z,36.97
2019-03-31T22:37:40.100Z,37.60
2019-03-31T22:40:09.302Z,41.63
2019-03-31T22:42:38.475Z,39.70
2019-03-31T22:45:07.713Z,42.27
2019-03-31T22:47:36.885Z,43.67
2019-03-31T22:50:06.382Z,45.33
2019-03-31T22:52:35.538Z,44.33
2019-03-31T22:55:04.731Z,42.20
2019-03-31T22:57:33.887Z,43.20
2019-03-31T23:00:03.156Z,45.07
2019-03-31T23:02:32.389Z,47.17
2019-03-31T23:05:01.594Z,40.63
2019-03-31T23:07:30.848Z,47.00
2019-03-31T23:10:00.178Z,42.43
2019-03-31T23:12:29.396Z,41.93
2019-03-31T23:14:58.711Z,45.87
2019-03-31T23:17:27.920Z,43.87
2019-03-31T23:19:57.132Z,45.20
2019-03-31T23:22:27.775Z,41.87
2019-03-31T23:24:57.024Z,41.43
2019-03-31T23:27:26.291Z,43.87
2019-03-31T23:29:55.633Z,48.37
2019-03-31T23:32:24.843Z,45.63
2019-03-31T23:34:54.033Z,46.23
2019-03-31T23:37:23.274Z,49.43
2019-03-31T23:39:52.415Z,47.63
2019-03-31T23:42:21.557Z,41.13
2019-03-31T23:44:50.899Z,47.60
2019-03-31T23:47:20.077Z,44.53
2019-03-31T23:49:49.231Z,43.27
2019-03-31T23:52:18.413Z,44.40
2019-03-31T23:54:47.569Z,47.10
2019-03-31T23:57:41.435Z,49.37
